Russellville, AR

1:19 PM CST on November 21, 2014 (GMT -0600)
Russellville Regional | Change Station
CLOSE
Current Station
Airport
Location: Russellville,
Elevation: 404 ft
Nearby Weather Stations

Elev 404 ft 35.26 °N, 93.09 °W | Updated 7 minutes ago

Overcast
Overcast
45 °F
Feels Like 44 °F
N
4
Wind Variable Wind from Variable

Today
High -- | Low -- °F
--% Chance of Precip.
Yesterday
High -- | Low -- °F
Precip. -- in
6:53 AM 5:03 PM
Waning Crescent, 1% visible
Pressure 30.23 in
Visibility 5.0 miles
Clouds Overcast 900 ft
Windchill 44 °F
Dew Point 43 °F
Humidity 93%
Rainfall 0.05 in
Snow Depth Not available.
UV 1 out of 12
Pollen .50 out of 12
Air Quality Not available.
Flu Activity Not available.
SPECI KRUE 211912Z AUTO VRB03KT 5SM BR OVC009 07/06 A3023 RMK AO2 CIG 006V012 T00720061

More Conditions Fewer Conditions

Pressure 30.23 in
Visibility 5.0 miles
Clouds Overcast 900 ft
Windchill 44 °F
Dew Point 43 °F
Humidity 93%
Rainfall 0.05 in
Snow Depth Not available.
UV 1 out of 12
Pollen .50 out of 12
Air Quality Not available.
Flu Activity Not available.
SPECI KRUE 211912Z AUTO VRB03KT 5SM BR OVC009 07/06 A3023 RMK AO2 CIG 006V012 T00720061

More Conditions Fewer Conditions

10-Day Weather Forecast

Almanac

Astronomy

Nov. 21, 2014 Rise Set
Actual Time
Civil Twilight
Nautical Twilight
Astronomical Twilight
Moon
Length of Visible Light
Length of Day
Tomorrow will be .
, % of the Moon is Illuminated

Today's Extremes

State Highs State Lows

Community

WunderPhotos

Upload Photos

1,772,702 photos uploaded!

WunderBlogs® & News

Nearby

Air Quality

  Air Quality AQ Index Pollutant
Not available.

Snow Depth

Station Depth Elevation

Earthquake Activity

City Distance Mag. Time & Date
Minimum magnitude displayed is 2.5.

Coastal Water Temperatures

Place Temperature

Nearby Weather Stations